sensor_id;sensor_type;location;lat;lon;timestamp;P1;durP1;ratioP1;P2;durP2;ratioP2
13250;SDS011;6692;50.710;7.180;2024-02-23T00:01:34;3.63;;;1.67;;
13250;SDS011;6692;50.710;7.180;2024-02-23T00:03:36;2.40;;;1.57;;
13250;SDS011;6692;50.710;7.180;2024-02-23T00:05:36;1.60;;;1.40;;
13250;SDS011;6692;50.710;7.180;2024-02-23T00:07:37;1.73;;;1.30;;
13250;SDS011;6692;50.710;7.180;2024-02-23T00:09:38;1.50;;;1.40;;
13250;SDS011;6692;50.710;7.180;2024-02-23T00:11:40;1.30;;;1.30;;
13250;SDS011;6692;50.710;7.180;2024-02-23T00:13:41;1.30;;;1.30;;
13250;SDS011;6692;50.710;7.180;2024-02-23T00:15:41;1.50;;;1.40;;
13250;SDS011;6692;50.710;7.180;2024-02-23T00:17:42;1.63;;;1.53;;
13250;SDS011;6692;50.710;7.180;2024-02-23T00:19:45;1.30;;;1.30;;
13250;SDS011;6692;50.710;7.180;2024-02-23T00:21:44;2.37;;;1.30;;
13250;SDS011;6692;50.710;7.180;2024-02-23T00:23:45;1.67;;;1.57;;
13250;SDS011;6692;50.710;7.180;2024-02-23T00:25:46;1.30;;;1.30;;
13250;SDS011;6692;50.710;7.180;2024-02-23T00:27:47;1.57;;;1.47;;
13250;SDS011;6692;50.710;7.180;2024-02-23T00:29:48;1.40;;;1.40;;
13250;SDS011;6692;50.710;7.180;2024-02-23T00:31:49;1.30;;;1.30;;
13250;SDS011;6692;50.710;7.180;2024-02-23T00:33:49;1.53;;;1.43;;
13250;SDS011;6692;50.710;7.180;2024-02-23T00:35:50;1.90;;;1.40;;
13250;SDS011;6692;50.710;7.180;2024-02-23T00:37:51;1.40;;;1.30;;
13250;SDS011;6692;50.710;7.180;2024-02-23T00:39:52;1.20;;;1.20;;
13250;SDS011;6692;50.710;7.180;2024-02-23T00:41:53;1.40;;;1.30;;
13250;SDS011;6692;50.710;7.180;2024-02-23T00:43:54;1.33;;;1.30;;
13250;SDS011;6692;50.710;7.180;2024-02-23T00:45:56;1.60;;;1.60;;
13250;SDS011;6692;50.710;7.180;2024-02-23T00:47:57;1.93;;;1.30;;
13250;SDS011;6692;50.710;7.180;2024-02-23T00:49:58;1.10;;;1.10;;
13250;SDS011;6692;50.710;7.180;2024-02-23T00:51:59;1.23;;;1.23;;
13250;SDS011;6692;50.710;7.180;2024-02-23T00:54:00;1.20;;;1.17;;
13250;SDS011;6692;50.710;7.180;2024-02-23T00:56:02;1.40;;;1.30;;
13250;SDS011;6692;50.710;7.180;2024-02-23T00:58:02;1.30;;;1.30;;
13250;SDS011;6692;50.710;7.180;2024-02-23T01:00:04;1.50;;;1.40;;
13250;SDS011;6692;50.710;7.180;2024-02-23T01:02:07;3.37;;;1.40;;
13250;SDS011;6692;50.710;7.180;2024-02-23T01:04:07;1.40;;;1.27;;
13250;SDS011;6692;50.710;7.180;2024-02-23T01:06:08;1.30;;;1.27;;
13250;SDS011;6692;50.710;7.180;2024-02-23T01:08:09;1.30;;;1.30;;
13250;SDS011;6692;50.710;7.180;2024-02-23T01:10:09;1.73;;;1.63;;
13250;SDS011;6692;50.710;7.180;2024-02-23T01:12:10;1.50;;;1.40;;
13250;SDS011;6692;50.710;7.180;2024-02-23T01:14:11;1.53;;;1.43;;
13250;SDS011;6692;50.710;7.180;2024-02-23T01:16:11;1.47;;;1.37;;
13250;SDS011;6692;50.710;7.180;2024-02-23T01:18:12;1.43;;;1.33;;
13250;SDS011;6692;50.710;7.180;2024-02-23T01:20:14;3.20;;;1.33;;
13250;SDS011;6692;50.710;7.180;2024-02-23T01:22:14;1.60;;;1.43;;
13250;SDS011;6692;50.710;7.180;2024-02-23T01:24:15;1.40;;;1.30;;
13250;SDS011;6692;50.710;7.180;2024-02-23T01:26:16;1.67;;;1.40;;
13250;SDS011;6692;50.710;7.180;2024-02-23T01:28:16;1.40;;;1.30;;
13250;SDS011;6692;50.710;7.180;2024-02-23T01:30:18;1.40;;;1.30;;
13250;SDS011;6692;50.710;7.180;2024-02-23T01:32:19;2.77;;;1.40;;
13250;SDS011;6692;50.710;7.180;2024-02-23T01:34:20;1.57;;;1.37;;
13250;SDS011;6692;50.710;7.180;2024-02-23T01:36:21;1.70;;;1.60;;
13250;SDS011;6692;50.710;7.180;2024-02-23T01:38:22;1.63;;;1.53;;
13250;SDS011;6692;50.710;7.180;2024-02-23T01:40:23;1.70;;;1.50;;
13250;SDS011;6692;50.710;7.180;2024-02-23T01:42:24;2.30;;;1.50;;
13250;SDS011;6692;50.710;7.180;2024-02-23T01:44:25;4.17;;;1.60;;
13250;SDS011;6692;50.710;7.180;2024-02-23T01:46:25;2.27;;;1.70;;
13250;SDS011;6692;50.710;7.180;2024-02-23T01:48:26;1.70;;;1.60;;
13250;SDS011;6692;50.710;7.180;2024-02-23T01:50:28;1.97;;;1.50;;
13250;SDS011;6692;50.710;7.180;2024-02-23T01:52:28;1.87;;;1.60;;
13250;SDS011;6692;50.710;7.180;2024-02-23T01:54:29;2.30;;;1.87;;
13250;SDS011;6692;50.710;7.180;2024-02-23T01:56:30;4.07;;;2.10;;
13250;SDS011;6692;50.710;7.180;2024-02-23T01:58:31;2.10;;;1.90;;
13250;SDS011;6692;50.710;7.180;2024-02-23T02:00:32;3.35;;;2.40;;
13250;SDS011;6692;50.710;7.180;2024-02-23T02:02:32;2.30;;;2.10;;
13250;SDS011;6692;50.710;7.180;2024-02-23T02:04:38;2.87;;;2.00;;
13250;SDS011;6692;50.710;7.180;2024-02-23T02:06:40;4.80;;;2.22;;
13250;SDS011;6692;50.710;7.180;2024-02-23T02:08:40;2.97;;;1.97;;
13250;SDS011;6692;50.710;7.180;2024-02-23T02:10:42;3.57;;;2.27;;
13250;SDS011;6692;50.710;7.180;2024-02-23T02:12:43;2.53;;;2.07;;
13250;SDS011;6692;50.710;7.180;2024-02-23T02:14:44;1.93;;;1.73;;
13250;SDS011;6692;50.710;7.180;2024-02-23T02:16:45;2.47;;;1.87;;
13250;SDS011;6692;50.710;7.180;2024-02-23T02:18:46;3.80;;;2.22;;
13250;SDS011;6692;50.710;7.180;2024-02-23T02:20:51;2.77;;;2.10;;
13250;SDS011;6692;50.710;7.180;2024-02-23T02:22:51;2.10;;;1.90;;
13250;SDS011;6692;50.710;7.180;2024-02-23T02:24:52;2.03;;;1.83;;
13250;SDS011;6692;50.710;7.180;2024-02-23T02:26:52;2.80;;;2.00;;
13250;SDS011;6692;50.710;7.180;2024-02-23T02:28:54;2.43;;;1.60;;
13250;SDS011;6692;50.710;7.180;2024-02-23T02:30:55;1.80;;;1.70;;
13250;SDS011;6692;50.710;7.180;2024-02-23T02:32:55;1.80;;;1.70;;
13250;SDS011;6692;50.710;7.180;2024-02-23T02:34:56;1.97;;;1.70;;
13250;SDS011;6692;50.710;7.180;2024-02-23T02:36:57;2.00;;;1.77;;
13250;SDS011;6692;50.710;7.180;2024-02-23T02:38:58;4.73;;;2.27;;
13250;SDS011;6692;50.710;7.180;2024-02-23T02:40:59;2.20;;;1.90;;
13250;SDS011;6692;50.710;7.180;2024-02-23T02:43:00;1.80;;;1.70;;
13250;SDS011;6692;50.710;7.180;2024-02-23T02:45:01;2.23;;;2.10;;
13250;SDS011;6692;50.710;7.180;2024-02-23T02:47:01;2.17;;;1.97;;
13250;SDS011;6692;50.710;7.180;2024-02-23T02:49:02;3.53;;;2.00;;
13250;SDS011;6692;50.710;7.180;2024-02-23T02:51:03;1.60;;;1.50;;
13250;SDS011;6692;50.710;7.180;2024-02-23T02:53:04;2.67;;;1.80;;
13250;SDS011;6692;50.710;7.180;2024-02-23T02:55:05;2.97;;;1.80;;
13250;SDS011;6692;50.710;7.180;2024-02-23T02:57:06;1.77;;;1.67;;
13250;SDS011;6692;50.710;7.180;2024-02-23T02:59:07;1.70;;;1.60;;
13250;SDS011;6692;50.710;7.180;2024-02-23T03:01:09;1.50;;;1.40;;
13250;SDS011;6692;50.710;7.180;2024-02-23T03:03:09;1.80;;;1.50;;
13250;SDS011;6692;50.710;7.180;2024-02-23T03:05:10;1.83;;;1.60;;
13250;SDS011;6692;50.710;7.180;2024-02-23T03:07:11;1.67;;;1.57;;
13250;SDS011;6692;50.710;7.180;2024-02-23T03:09:11;2.00;;;1.50;;
13250;SDS011;6692;50.710;7.180;2024-02-23T03:11:13;1.70;;;1.53;;
13250;SDS011;6692;50.710;7.180;2024-02-23T03:13:14;2.13;;;1.90;;
13250;SDS011;6692;50.710;7.180;2024-02-23T03:15:15;2.03;;;1.60;;
13250;SDS011;6692;50.710;7.180;2024-02-23T03:17:16;1.57;;;1.47;;
13250;SDS011;6692;50.710;7.180;2024-02-23T03:19:17;1.63;;;1.53;;
13250;SDS011;6692;50.710;7.180;2024-02-23T03:21:17;1.53;;;1.43;;
13250;SDS011;6692;50.710;7.180;2024-02-23T03:23:18;1.83;;;1.50;;
13250;SDS011;6692;50.710;7.180;2024-02-23T03:25:19;2.07;;;1.50;;
13250;SDS011;6692;50.710;7.180;2024-02-23T03:27:19;2.77;;;1.63;;
13250;SDS011;6692;50.710;7.180;2024-02-23T03:29:20;3.10;;;1.50;;
13250;SDS011;6692;50.710;7.180;2024-02-23T03:31:21;2.67;;;1.50;;
13250;SDS011;6692;50.710;7.180;2024-02-23T03:33:22;2.47;;;1.70;;
13250;SDS011;6692;50.710;7.180;2024-02-23T03:35:22;1.47;;;1.33;;
13250;SDS011;6692;50.710;7.180;2024-02-23T03:37:23;1.77;;;1.67;;
13250;SDS011;6692;50.710;7.180;2024-02-23T03:39:24;1.97;;;1.53;;
13250;SDS011;6692;50.710;7.180;2024-02-23T03:41:24;2.63;;;1.83;;
13250;SDS011;6692;50.710;7.180;2024-02-23T03:43:25;2.93;;;1.80;;
13250;SDS011;6692;50.710;7.180;2024-02-23T03:45:26;1.57;;;1.40;;
13250;SDS011;6692;50.710;7.180;2024-02-23T03:47:26;2.27;;;1.70;;
13250;SDS011;6692;50.710;7.180;2024-02-23T03:49:28;2.17;;;1.80;;
13250;SDS011;6692;50.710;7.180;2024-02-23T03:51:29;1.80;;;1.70;;
13250;SDS011;6692;50.710;7.180;2024-02-23T03:53:29;5.93;;;1.87;;
13250;SDS011;6692;50.710;7.180;2024-02-23T03:55:30;1.73;;;1.60;;
13250;SDS011;6692;50.710;7.180;2024-02-23T03:57:31;2.53;;;1.87;;
13250;SDS011;6692;50.710;7.180;2024-02-23T03:59:31;2.27;;;1.87;;
13250;SDS011;6692;50.710;7.180;2024-02-23T04:01:32;3.60;;;1.77;;
13250;SDS011;6692;50.710;7.180;2024-02-23T04:03:33;2.27;;;1.60;;
13250;SDS011;6692;50.710;7.180;2024-02-23T04:05:34;2.13;;;1.53;;
13250;SDS011;6692;50.710;7.180;2024-02-23T04:07:34;1.83;;;1.73;;
13250;SDS011;6692;50.710;7.180;2024-02-23T04:09:35;2.17;;;1.60;;
13250;SDS011;6692;50.710;7.180;2024-02-23T04:11:36;2.43;;;1.90;;
13250;SDS011;6692;50.710;7.180;2024-02-23T04:13:36;1.73;;;1.60;;
13250;SDS011;6692;50.710;7.180;2024-02-23T04:15:37;1.60;;;1.30;;
13250;SDS011;6692;50.710;7.180;2024-02-23T04:17:38;2.10;;;1.67;;
13250;SDS011;6692;50.710;7.180;2024-02-23T04:19:40;2.57;;;1.60;;
13250;SDS011;6692;50.710;7.180;2024-02-23T04:21:39;5.40;;;1.80;;
13250;SDS011;6692;50.710;7.180;2024-02-23T04:23:40;3.30;;;1.53;;
13250;SDS011;6692;50.710;7.180;2024-02-23T04:25:41;1.50;;;1.40;;
13250;SDS011;6692;50.710;7.180;2024-02-23T04:27:41;1.70;;;1.60;;
13250;SDS011;6692;50.710;7.180;2024-02-23T04:29:42;1.47;;;1.37;;
13250;SDS011;6692;50.710;7.180;2024-02-23T04:31:43;1.60;;;1.50;;
13250;SDS011;6692;50.710;7.180;2024-02-23T04:33:44;2.57;;;1.57;;
13250;SDS011;6692;50.710;7.180;2024-02-23T04:35:45;1.60;;;1.40;;
13250;SDS011;6692;50.710;7.180;2024-02-23T04:37:46;1.60;;;1.43;;
13250;SDS011;6692;50.710;7.180;2024-02-23T04:39:47;1.20;;;1.20;;
13250;SDS011;6692;50.710;7.180;2024-02-23T04:41:47;1.57;;;1.47;;
13250;SDS011;6692;50.710;7.180;2024-02-23T04:43:48;1.67;;;1.57;;
13250;SDS011;6692;50.710;7.180;2024-02-23T04:45:49;1.60;;;1.50;;
13250;SDS011;6692;50.710;7.180;2024-02-23T04:47:49;2.30;;;1.50;;
13250;SDS011;6692;50.710;7.180;2024-02-23T04:49:50;1.40;;;1.30;;
13250;SDS011;6692;50.710;7.180;2024-02-23T04:51:51;2.60;;;1.70;;
13250;SDS011;6692;50.710;7.180;2024-02-23T04:53:52;2.10;;;1.60;;
13250;SDS011;6692;50.710;7.180;2024-02-23T04:55:54;3.10;;;1.50;;
13250;SDS011;6692;50.710;7.180;2024-02-23T04:57:54;2.07;;;1.90;;
13250;SDS011;6692;50.710;7.180;2024-02-23T04:59:55;2.70;;;1.60;;
13250;SDS011;6692;50.710;7.180;2024-02-23T05:01:56;2.13;;;1.83;;
13250;SDS011;6692;50.710;7.180;2024-02-23T05:03:56;2.67;;;1.77;;
13250;SDS011;6692;50.710;7.180;2024-02-23T05:05:57;3.07;;;1.70;;
13250;SDS011;6692;50.710;7.180;2024-02-23T05:07:58;2.53;;;1.87;;
13250;SDS011;6692;50.710;7.180;2024-02-23T05:09:58;1.80;;;1.47;;
13250;SDS011;6692;50.710;7.180;2024-02-23T05:12:00;3.17;;;1.80;;
13250;SDS011;6692;50.710;7.180;2024-02-23T05:14:01;4.23;;;2.13;;
13250;SDS011;6692;50.710;7.180;2024-02-23T05:16:03;3.07;;;2.00;;
13250;SDS011;6692;50.710;7.180;2024-02-23T05:18:04;2.50;;;1.80;;
13250;SDS011;6692;50.710;7.180;2024-02-23T05:20:06;3.03;;;1.80;;
13250;SDS011;6692;50.710;7.180;2024-02-23T05:22:08;2.10;;;1.60;;
13250;SDS011;6692;50.710;7.180;2024-02-23T05:24:10;2.77;;;1.80;;
13250;SDS011;6692;50.710;7.180;2024-02-23T05:26:09;4.30;;;2.03;;
13250;SDS011;6692;50.710;7.180;2024-02-23T05:28:10;2.83;;;1.93;;
13250;SDS011;6692;50.710;7.180;2024-02-23T05:30:12;2.07;;;1.80;;
13250;SDS011;6692;50.710;7.180;2024-02-23T05:32:13;1.83;;;1.73;;
13250;SDS011;6692;50.710;7.180;2024-02-23T05:34:14;2.33;;;2.00;;
13250;SDS011;6692;50.710;7.180;2024-02-23T05:36:15;3.53;;;2.03;;
13250;SDS011;6692;50.710;7.180;2024-02-23T05:38:15;2.30;;;1.70;;
13250;SDS011;6692;50.710;7.180;2024-02-23T05:40:16;2.00;;;1.80;;
13250;SDS011;6692;50.710;7.180;2024-02-23T05:42:17;1.93;;;1.63;;
13250;SDS011;6692;50.710;7.180;2024-02-23T05:44:17;2.13;;;1.67;;
13250;SDS011;6692;50.710;7.180;2024-02-23T05:46:18;1.47;;;1.43;;
13250;SDS011;6692;50.710;7.180;2024-02-23T05:48:20;2.73;;;1.70;;
13250;SDS011;6692;50.710;7.180;2024-02-23T05:50:20;1.60;;;1.50;;
13250;SDS011;6692;50.710;7.180;2024-02-23T05:52:21;2.50;;;2.20;;
13250;SDS011;6692;50.710;7.180;2024-02-23T05:54:22;1.60;;;1.50;;
13250;SDS011;6692;50.710;7.180;2024-02-23T05:56:23;3.10;;;2.00;;
13250;SDS011;6692;50.710;7.180;2024-02-23T05:58:25;2.20;;;1.95;;
13250;SDS011;6692;50.710;7.180;2024-02-23T06:00:25;2.80;;;2.23;;
13250;SDS011;6692;50.710;7.180;2024-02-23T06:02:26;1.70;;;1.60;;
13250;SDS011;6692;50.710;7.180;2024-02-23T06:04:27;2.30;;;2.00;;
13250;SDS011;6692;50.710;7.180;2024-02-23T06:06:28;3.50;;;2.20;;
13250;SDS011;6692;50.710;7.180;2024-02-23T06:08:29;2.47;;;1.87;;
13250;SDS011;6692;50.710;7.180;2024-02-23T06:10:29;2.40;;;1.90;;
13250;SDS011;6692;50.710;7.180;2024-02-23T06:12:30;2.43;;;2.07;;
13250;SDS011;6692;50.710;7.180;2024-02-23T06:14:31;3.57;;;2.10;;
13250;SDS011;6692;50.710;7.180;2024-02-23T06:16:32;3.00;;;2.17;;
13250;SDS011;6692;50.710;7.180;2024-02-23T06:18:33;2.60;;;2.30;;
13250;SDS011;6692;50.710;7.180;2024-02-23T06:20:34;3.92;;;2.80;;
13250;SDS011;6692;50.710;7.180;2024-02-23T06:22:34;2.60;;;2.40;;
13250;SDS011;6692;50.710;7.180;2024-02-23T06:24:35;3.77;;;2.10;;
13250;SDS011;6692;50.710;7.180;2024-02-23T06:26:36;3.07;;;2.10;;
13250;SDS011;6692;50.710;7.180;2024-02-23T06:28:38;3.07;;;2.27;;
13250;SDS011;6692;50.710;7.180;2024-02-23T06:30:38;4.23;;;2.57;;
13250;SDS011;6692;50.710;7.180;2024-02-23T06:32:39;5.37;;;2.23;;
13250;SDS011;6692;50.710;7.180;2024-02-23T06:34:39;5.87;;;2.17;;
13250;SDS011;6692;50.710;7.180;2024-02-23T06:36:40;2.97;;;2.27;;
13250;SDS011;6692;50.710;7.180;2024-02-23T06:38:41;3.93;;;2.03;;
13250;SDS011;6692;50.710;7.180;2024-02-23T06:40:41;3.63;;;2.30;;
13250;SDS011;6692;50.710;7.180;2024-02-23T06:42:42;2.43;;;2.10;;
13250;SDS011;6692;50.710;7.180;2024-02-23T06:44:43;2.73;;;2.00;;
13250;SDS011;6692;50.710;7.180;2024-02-23T06:46:44;5.33;;;2.00;;
13250;SDS011;6692;50.710;7.180;2024-02-23T06:48:45;4.67;;;2.27;;
13250;SDS011;6692;50.710;7.180;2024-02-23T06:50:45;2.50;;;2.20;;
13250;SDS011;6692;50.710;7.180;2024-02-23T06:52:46;4.20;;;2.50;;
13250;SDS011;6692;50.710;7.180;2024-02-23T06:54:47;6.10;;;2.40;;
13250;SDS011;6692;50.710;7.180;2024-02-23T06:56:48;4.07;;;2.23;;
13250;SDS011;6692;50.710;7.180;2024-02-23T06:58:48;5.60;;;2.43;;
13250;SDS011;6692;50.710;7.180;2024-02-23T07:00:49;3.80;;;2.23;;
13250;SDS011;6692;50.710;7.180;2024-02-23T07:02:50;3.07;;;2.13;;
13250;SDS011;6692;50.710;7.180;2024-02-23T07:04:50;4.37;;;2.17;;
13250;SDS011;6692;50.710;7.180;2024-02-23T07:06:51;6.57;;;2.30;;
13250;SDS011;6692;50.710;7.180;2024-02-23T07:08:52;4.67;;;2.90;;
13250;SDS011;6692;50.710;7.180;2024-02-23T07:10:52;3.40;;;1.90;;
13250;SDS011;6692;50.710;7.180;2024-02-23T07:12:53;4.20;;;2.33;;
13250;SDS011;6692;50.710;7.180;2024-02-23T07:14:55;3.40;;;2.33;;
13250;SDS011;6692;50.710;7.180;2024-02-23T07:16:55;6.80;;;2.40;;
13250;SDS011;6692;50.710;7.180;2024-02-23T07:18:56;5.53;;;2.33;;
13250;SDS011;6692;50.710;7.180;2024-02-23T07:20:57;3.40;;;2.20;;
13250;SDS011;6692;50.710;7.180;2024-02-23T07:22:58;5.23;;;2.33;;
13250;SDS011;6692;50.710;7.180;2024-02-23T07:24:58;6.70;;;2.40;;
13250;SDS011;6692;50.710;7.180;2024-02-23T07:26:59;5.07;;;2.30;;
13250;SDS011;6692;50.710;7.180;2024-02-23T07:29:00;6.83;;;2.80;;
13250;SDS011;6692;50.710;7.180;2024-02-23T07:31:00;4.67;;;2.50;;
13250;SDS011;6692;50.710;7.180;2024-02-23T07:33:01;5.40;;;2.40;;
13250;SDS011;6692;50.710;7.180;2024-02-23T07:35:02;5.73;;;2.40;;
13250;SDS011;6692;50.710;7.180;2024-02-23T07:37:03;3.13;;;2.40;;
13250;SDS011;6692;50.710;7.180;2024-02-23T07:39:03;3.03;;;2.00;;
13250;SDS011;6692;50.710;7.180;2024-02-23T07:41:04;2.70;;;2.40;;
13250;SDS011;6692;50.710;7.180;2024-02-23T07:43:05;4.47;;;2.00;;
13250;SDS011;6692;50.710;7.180;2024-02-23T07:45:07;4.00;;;2.23;;
13250;SDS011;6692;50.710;7.180;2024-02-23T07:47:08;3.00;;;2.10;;
13250;SDS011;6692;50.710;7.180;2024-02-23T07:49:08;3.10;;;2.00;;
13250;SDS011;6692;50.710;7.180;2024-02-23T07:51:09;2.97;;;2.30;;
13250;SDS011;6692;50.710;7.180;2024-02-23T07:53:10;3.33;;;2.37;;
13250;SDS011;6692;50.710;7.180;2024-02-23T07:55:11;2.83;;;1.87;;
13250;SDS011;6692;50.710;7.180;2024-02-23T07:57:11;2.47;;;1.87;;
13250;SDS011;6692;50.710;7.180;2024-02-23T07:59:12;3.20;;;2.00;;
13250;SDS011;6692;50.710;7.180;2024-02-23T08:01:14;2.67;;;2.10;;
13250;SDS011;6692;50.710;7.180;2024-02-23T08:03:14;3.50;;;1.80;;
13250;SDS011;6692;50.710;7.180;2024-02-23T08:05:15;6.93;;;2.10;;
13250;SDS011;6692;50.710;7.180;2024-02-23T08:07:16;2.53;;;2.00;;
13250;SDS011;6692;50.710;7.180;2024-02-23T08:09:17;3.73;;;1.90;;
13250;SDS011;6692;50.710;7.180;2024-02-23T08:11:17;5.00;;;2.40;;
13250;SDS011;6692;50.710;7.180;2024-02-23T08:13:19;4.93;;;2.23;;
13250;SDS011;6692;50.710;7.180;2024-02-23T08:15:19;4.17;;;2.13;;
13250;SDS011;6692;50.710;7.180;2024-02-23T08:17:20;4.90;;;2.13;;
13250;SDS011;6692;50.710;7.180;2024-02-23T08:19:21;2.20;;;1.97;;
13250;SDS011;6692;50.710;7.180;2024-02-23T08:21:21;5.03;;;2.20;;
13250;SDS011;6692;50.710;7.180;2024-02-23T08:23:23;4.87;;;2.60;;
13250;SDS011;6692;50.710;7.180;2024-02-23T08:25:24;4.03;;;2.00;;
13250;SDS011;6692;50.710;7.180;2024-02-23T08:27:24;5.27;;;2.27;;
13250;SDS011;6692;50.710;7.180;2024-02-23T08:29:25;3.57;;;2.00;;
13250;SDS011;6692;50.710;7.180;2024-02-23T08:31:26;5.47;;;2.23;;
13250;SDS011;6692;50.710;7.180;2024-02-23T08:33:27;2.77;;;2.20;;
13250;SDS011;6692;50.710;7.180;2024-02-23T08:35:28;3.47;;;2.30;;
13250;SDS011;6692;50.710;7.180;2024-02-23T08:37:29;2.50;;;1.80;;
13250;SDS011;6692;50.710;7.180;2024-02-23T08:39:29;5.40;;;2.00;;
13250;SDS011;6692;50.710;7.180;2024-02-23T08:41:30;5.67;;;2.27;;
13250;SDS011;6692;50.710;7.180;2024-02-23T08:43:31;3.67;;;2.30;;
13250;SDS011;6692;50.710;7.180;2024-02-23T08:45:31;4.67;;;2.20;;
13250;SDS011;6692;50.710;7.180;2024-02-23T08:47:32;2.97;;;2.13;;
13250;SDS011;6692;50.710;7.180;2024-02-23T08:49:33;4.87;;;1.80;;
13250;SDS011;6692;50.710;7.180;2024-02-23T08:51:34;5.97;;;2.10;;
13250;SDS011;6692;50.710;7.180;2024-02-23T08:53:35;5.17;;;1.80;;
13250;SDS011;6692;50.710;7.180;2024-02-23T08:55:36;4.17;;;2.07;;
13250;SDS011;6692;50.710;7.180;2024-02-23T08:57:37;5.57;;;2.20;;
13250;SDS011;6692;50.710;7.180;2024-02-23T08:59:38;3.50;;;1.97;;
13250;SDS011;6692;50.710;7.180;2024-02-23T09:01:38;3.20;;;1.80;;
13250;SDS011;6692;50.710;7.180;2024-02-23T09:03:40;2.93;;;2.07;;
13250;SDS011;6692;50.710;7.180;2024-02-23T09:05:40;3.17;;;2.00;;
13250;SDS011;6692;50.710;7.180;2024-02-23T09:07:41;5.73;;;2.33;;
13250;SDS011;6692;50.710;7.180;2024-02-23T09:09:42;4.37;;;1.73;;
13250;SDS011;6692;50.710;7.180;2024-02-23T09:11:43;5.80;;;2.17;;
13250;SDS011;6692;50.710;7.180;2024-02-23T09:13:44;3.40;;;1.87;;
13250;SDS011;6692;50.710;7.180;2024-02-23T09:15:45;1.83;;;1.60;;
13250;SDS011;6692;50.710;7.180;2024-02-23T09:17:46;2.90;;;1.73;;
13250;SDS011;6692;50.710;7.180;2024-02-23T09:19:47;2.67;;;1.77;;
13250;SDS011;6692;50.710;7.180;2024-02-23T09:21:48;2.70;;;1.83;;
13250;SDS011;6692;50.710;7.180;2024-02-23T09:23:49;4.10;;;1.87;;
13250;SDS011;6692;50.710;7.180;2024-02-23T09:25:49;2.67;;;1.87;;
13250;SDS011;6692;50.710;7.180;2024-02-23T09:27:51;3.50;;;1.80;;
13250;SDS011;6692;50.710;7.180;2024-02-23T09:29:51;3.80;;;1.93;;
13250;SDS011;6692;50.710;7.180;2024-02-23T09:31:52;4.03;;;2.20;;
13250;SDS011;6692;50.710;7.180;2024-02-23T09:33:53;3.87;;;2.10;;
13250;SDS011;6692;50.710;7.180;2024-02-23T09:35:54;4.47;;;2.00;;
13250;SDS011;6692;50.710;7.180;2024-02-23T09:37:55;4.60;;;2.07;;
13250;SDS011;6692;50.710;7.180;2024-02-23T09:39:56;3.70;;;1.80;;
13250;SDS011;6692;50.710;7.180;2024-02-23T09:41:57;4.33;;;1.83;;
13250;SDS011;6692;50.710;7.180;2024-02-23T09:43:59;2.57;;;1.90;;
13250;SDS011;6692;50.710;7.180;2024-02-23T09:45:59;1.80;;;1.70;;
13250;SDS011;6692;50.710;7.180;2024-02-23T09:48:00;2.67;;;2.03;;
13250;SDS011;6692;50.710;7.180;2024-02-23T09:50:01;3.07;;;1.93;;
13250;SDS011;6692;50.710;7.180;2024-02-23T09:52:02;5.77;;;1.90;;
13250;SDS011;6692;50.710;7.180;2024-02-23T09:54:04;2.83;;;1.80;;
13250;SDS011;6692;50.710;7.180;2024-02-23T09:56:06;1.87;;;1.60;;
13250;SDS011;6692;50.710;7.180;2024-02-23T09:58:07;2.10;;;1.87;;
13250;SDS011;6692;50.710;7.180;2024-02-23T10:00:08;3.03;;;1.93;;
13250;SDS011;6692;50.710;7.180;2024-02-23T10:02:13;2.33;;;2.00;;
13250;SDS011;6692;50.710;7.180;2024-02-23T10:04:11;2.93;;;1.80;;
13250;SDS011;6692;50.710;7.180;2024-02-23T10:06:12;2.23;;;1.93;;
13250;SDS011;6692;50.710;7.180;2024-02-23T10:08:13;2.70;;;2.10;;
13250;SDS011;6692;50.710;7.180;2024-02-23T10:10:14;2.60;;;1.83;;
13250;SDS011;6692;50.710;7.180;2024-02-23T10:12:18;3.47;;;2.10;;
13250;SDS011;6692;50.710;7.180;2024-02-23T10:14:19;2.73;;;2.00;;
13250;SDS011;6692;50.710;7.180;2024-02-23T10:16:20;4.23;;;2.30;;
13250;SDS011;6692;50.710;7.180;2024-02-23T10:18:21;5.80;;;2.47;;
13250;SDS011;6692;50.710;7.180;2024-02-23T10:20:22;4.57;;;2.00;;
13250;SDS011;6692;50.710;7.180;2024-02-23T10:22:23;4.60;;;2.10;;
13250;SDS011;6692;50.710;7.180;2024-02-23T10:24:23;3.43;;;2.07;;
13250;SDS011;6692;50.710;7.180;2024-02-23T10:26:24;4.10;;;2.10;;
13250;SDS011;6692;50.710;7.180;2024-02-23T10:28:25;3.00;;;2.00;;
13250;SDS011;6692;50.710;7.180;2024-02-23T10:30:26;3.30;;;1.77;;
13250;SDS011;6692;50.710;7.180;2024-02-23T10:32:27;3.77;;;1.80;;
13250;SDS011;6692;50.710;7.180;2024-02-23T10:34:27;3.67;;;1.83;;
13250;SDS011;6692;50.710;7.180;2024-02-23T10:36:28;5.00;;;1.80;;
13250;SDS011;6692;50.710;7.180;2024-02-23T10:38:29;2.57;;;1.70;;
13250;SDS011;6692;50.710;7.180;2024-02-23T10:40:29;2.70;;;1.90;;
13250;SDS011;6692;50.710;7.180;2024-02-23T10:42:30;5.40;;;1.90;;
13250;SDS011;6692;50.710;7.180;2024-02-23T10:44:32;2.60;;;1.77;;
13250;SDS011;6692;50.710;7.180;2024-02-23T10:46:33;2.60;;;1.80;;
13250;SDS011;6692;50.710;7.180;2024-02-23T10:48:33;3.10;;;2.07;;
13250;SDS011;6692;50.710;7.180;2024-02-23T10:50:34;2.93;;;2.13;;
13250;SDS011;6692;50.710;7.180;2024-02-23T10:52:35;2.43;;;1.80;;
13250;SDS011;6692;50.710;7.180;2024-02-23T10:54:36;2.40;;;1.70;;
13250;SDS011;6692;50.710;7.180;2024-02-23T10:56:36;3.70;;;1.70;;
13250;SDS011;6692;50.710;7.180;2024-02-23T10:58:37;3.50;;;1.90;;
13250;SDS011;6692;50.710;7.180;2024-02-23T11:00:38;3.67;;;2.10;;
13250;SDS011;6692;50.710;7.180;2024-02-23T11:02:40;3.97;;;2.07;;
13250;SDS011;6692;50.710;7.180;2024-02-23T11:04:39;2.50;;;2.00;;
13250;SDS011;6692;50.710;7.180;2024-02-23T11:06:40;2.00;;;1.80;;
13250;SDS011;6692;50.710;7.180;2024-02-23T11:08:40;3.97;;;1.80;;
13250;SDS011;6692;50.710;7.180;2024-02-23T11:10:42;2.23;;;1.77;;
13250;SDS011;6692;50.710;7.180;2024-02-23T11:12:43;3.77;;;1.97;;
13250;SDS011;6692;50.710;7.180;2024-02-23T11:14:43;2.60;;;1.70;;
13250;SDS011;6692;50.710;7.180;2024-02-23T11:16:44;3.47;;;1.90;;
13250;SDS011;6692;50.710;7.180;2024-02-23T11:18:45;4.30;;;1.80;;
13250;SDS011;6692;50.710;7.180;2024-02-23T11:20:45;1.67;;;1.57;;
13250;SDS011;6692;50.710;7.180;2024-02-23T11:22:46;5.93;;;2.30;;
13250;SDS011;6692;50.710;7.180;2024-02-23T11:24:48;5.50;;;2.03;;
13250;SDS011;6692;50.710;7.180;2024-02-23T11:26:47;2.50;;;1.77;;
13250;SDS011;6692;50.710;7.180;2024-02-23T11:28:49;3.53;;;2.00;;
13250;SDS011;6692;50.710;7.180;2024-02-23T11:30:50;1.87;;;1.77;;
13250;SDS011;6692;50.710;7.180;2024-02-23T11:32:50;2.40;;;1.73;;
13250;SDS011;6692;50.710;7.180;2024-02-23T11:34:55;2.97;;;1.73;;
13250;SDS011;6692;50.710;7.180;2024-02-23T11:36:57;3.77;;;2.20;;
13250;SDS011;6692;50.710;7.180;2024-02-23T11:39:00;1.70;;;1.60;;
13250;SDS011;6692;50.710;7.180;2024-02-23T11:40:59;3.33;;;1.93;;
13250;SDS011;6692;50.710;7.180;2024-02-23T11:43:00;2.97;;;2.10;;
13250;SDS011;6692;50.710;7.180;2024-02-23T11:45:00;2.80;;;2.03;;
13250;SDS011;6692;50.710;7.180;2024-02-23T11:47:01;3.70;;;2.20;;
13250;SDS011;6692;50.710;7.180;2024-02-23T11:49:02;3.53;;;2.10;;
13250;SDS011;6692;50.710;7.180;2024-02-23T11:51:03;2.97;;;2.00;;
13250;SDS011;6692;50.710;7.180;2024-02-23T11:53:04;2.83;;;2.13;;
13250;SDS011;6692;50.710;7.180;2024-02-23T11:55:05;3.33;;;2.37;;
13250;SDS011;6692;50.710;7.180;2024-02-23T11:57:06;2.77;;;2.00;;
13250;SDS011;6692;50.710;7.180;2024-02-23T11:59:07;3.43;;;2.03;;
13250;SDS011;6692;50.710;7.180;2024-02-23T12:01:08;5.33;;;2.10;;
13250;SDS011;6692;50.710;7.180;2024-02-23T12:03:09;2.27;;;1.70;;
13250;SDS011;6692;50.710;7.180;2024-02-23T12:05:09;4.77;;;1.97;;
13250;SDS011;6692;50.710;7.180;2024-02-23T12:07:10;2.17;;;1.73;;
13250;SDS011;6692;50.710;7.180;2024-02-23T12:09:11;2.10;;;1.70;;
13250;SDS011;6692;50.710;7.180;2024-02-23T12:11:11;3.63;;;2.07;;
13250;SDS011;6692;50.710;7.180;2024-02-23T12:13:12;2.23;;;1.73;;
13250;SDS011;6692;50.710;7.180;2024-02-23T12:15:13;2.10;;;1.73;;
13250;SDS011;6692;50.710;7.180;2024-02-23T12:17:14;2.40;;;1.70;;
13250;SDS011;6692;50.710;7.180;2024-02-23T12:19:14;2.00;;;1.50;;